Houma — WDD9648 — position and weather

sailwx.info

Track history (hours):
 
Tides and Currents Weather Stations Pressure Air Temp Water Temp Dewpoint Dewpoint Depression Visibility Wind Speed Wind Dir Waves Ship Positions

Houma

Owner: Kirby Inland Marine, LP, Houston, TX. More information available from US FCC via Universal Licensing System and Coast Guard Vessel Documentation Center.

Last reported at 2018-Feb-25 13:00 UTC. Time now 2018-Feb-25 13:28 UTC.
Position N 29°34' W 094°28'.

Length 115 m; draft 2.9 m.

Type: . MMSI: 367314420.

Date/timePositionNaut miles runAvg speedWind from/ knotsBaromVisibWave heightAir tempDewpointWater temp
2018-Feb-25 13:00N 29°34' W 094°28'0 0.7
2018-Feb-25 12:30N 29°34' W 094°27'2 3.5
2018-Feb-25 11:51N 29°35' W 094°25'2 4.5
2018-Feb-25 11:30N 29°36' W 094°23'1 2.1
2018-Feb-25 10:59N 29°36' W 094°22'0 0.1
2018-Feb-25 10:18N 29°36' W 094°22'1 0.6
2018-Feb-25 07:56N 29°37' W 094°21'0 0.0
2018-Feb-25 07:29N 29°37' W 094°21'0 0.0
2018-Feb-25 07:00N 29°37' W 094°21'3 2.2
2018-Feb-25 05:48N 29°38' W 094°18'2 6.2
2018-Feb-25 05:30N 29°39' W 094°16'4 6.3
2018-Feb-25 04:55N 29°41' W 094°13'2 6.2
2018-Feb-25 04:30N 29°41' W 094°10'2 4.6
2018-Feb-25 04:00N 29°43' W 094°08'3 5.3
2018-Feb-25 03:30N 29°44' W 094°05'3 5.5
2018-Feb-25 03:00N 29°46' W 094°03'3 5.7
2018-Feb-25 02:30N 29°48' W 094°00'3 5.5
2018-Feb-25 02:01N 29°49' W 093°58'3 6.9
2018-Feb-25 01:30N 29°52' W 093°56'4 7.6
2018-Feb-25 01:00N 29°55' W 093°53'3 6.9
2018-Feb-25 00:30N 29°59' W 093°52'4 7.6
2018-Feb-25 00:00N 29°60' W 093°56'0 0.1
2018-Feb-24 23:29N 29°59' W 093°56'0 0.0
2018-Feb-24 22:59N 29°59' W 093°56'0 0.0
2018-Feb-24 22:29N 29°59' W 093°56'0 0.0
2018-Feb-24 21:59N 29°59' W 093°56'0 0.0
2018-Feb-24 21:29N 29°59' W 093°56'0 0.0
2018-Feb-24 20:59N 29°59' W 093°56'0 0.0
2018-Feb-24 20:29N 29°59' W 093°56'0 0.0
2018-Feb-24 19:59N 29°59' W 093°56'0 0.0
2018-Feb-24 19:29N 29°59' W 093°56'0 0.0
2018-Feb-24 18:58N 29°59' W 093°56'0 0.0
2018-Feb-24 18:28N 29°59' W 093°56'0 0.0
2018-Feb-24 17:58N 29°59' W 093°56'0 0.0
2018-Feb-24 17:28N 29°59' W 093°56'0 0.0
2018-Feb-24 16:58N 29°59' W 093°56'0 0.0
2018-Feb-24 16:28N 29°59' W 093°56'0 0.0
2018-Feb-24 15:58N 29°59' W 093°56'0 0.0
2018-Feb-24 15:28N 29°59' W 093°56'0 0.0
2018-Feb-24 14:58N 29°59' W 093°56'0 0.0
2018-Feb-24 14:28N 29°59' W 093°56'0 0.0
2018-Feb-24 13:58N 29°59' W 093°56'0 0.0
2018-Feb-24 13:28N 29°59' W 093°56'0 0.0
2018-Feb-24 12:58N 29°59' W 093°56'0 0.0
2018-Feb-24 12:25N 29°59' W 093°56'0 0.0
2018-Feb-24 11:58N 29°59' W 093°56'0 0.0
2018-Feb-24 11:28N 29°59' W 093°56'0 0.0
2018-Feb-24 10:58N 29°59' W 093°56'0 0.0
2018-Feb-24 10:25N 29°59' W 093°56'0 0.0
2018-Feb-24 09:58N 29°59' W 093°56'0 0.0
2018-Feb-24 09:28N 29°59' W 093°56'0 0.0
2018-Feb-24 08:58N 29°59' W 093°56'0 0.0
2018-Feb-24 08:28N 29°59' W 093°56'0 0.0
2018-Feb-24 07:58N 29°59' W 093°56'0 0.0
2018-Feb-24 07:28N 29°59' W 093°56'0 0.0
2018-Feb-24 06:58N 29°59' W 093°56'0 0.0
2018-Feb-24 06:28N 29°59' W 093°56'0 0.0
2018-Feb-24 05:58N 29°59' W 093°56'0 0.0
2018-Feb-24 05:28N 29°59' W 093°56'0 0.0
2018-Feb-24 04:59N 29°59' W 093°56'0 0.0
2018-Feb-24 04:30N 29°59' W 093°56'0 0.1
2018-Feb-24 03:59N 29°59' W 093°56'0 0.0
2018-Feb-24 03:29N 29°59' W 093°56'0 0.0
2018-Feb-24 02:59N 29°59' W 093°56'0 0.0
2018-Feb-24 02:29N 29°59' W 093°56'0 0.0
2018-Feb-24 01:59N 29°59' W 093°56'0 0.0
2018-Feb-24 01:29N 29°59' W 093°56'0 0.0
2018-Feb-24 00:59N 29°59' W 093°56'0 0.0
2018-Feb-24 00:29N 29°59' W 093°56'0 0.0
2018-Feb-23 23:59N 29°59' W 093°56'0 0.0
2018-Feb-23 23:29N 29°59' W 093°56'0 0.0
2018-Feb-23 22:59N 29°59' W 093°56'0 0.0
2018-Feb-23 22:29N 29°59' W 093°56'0 0.0
2018-Feb-23 21:59N 29°59' W 093°56'0 0.0
2018-Feb-23 21:29N 29°59' W 093°56'0 0.0
2018-Feb-23 20:59N 29°59' W 093°56'0 0.0
2018-Feb-23 20:30N 29°59' W 093°56'1 1.9
2018-Feb-23 20:00N 29°60' W 093°55'0 0.1
2018-Feb-23 19:30N 29°60' W 093°55'0 0.0
2018-Feb-23 19:00N 29°60' W 093°55'0 0.0
2018-Feb-23 18:29N 29°60' W 093°55'0 0.0
2018-Feb-23 18:00N 29°60' W 093°55'3 6.3
2018-Feb-23 17:30N 29°59' W 093°52'1 1.1
2018-Feb-23 16:58N 29°58' W 093°52'0 0.0
2018-Feb-23 16:28N 29°58' W 093°52'0 0.0
2018-Feb-23 15:58N 29°58' W 093°52'0 0.0
2018-Feb-23 15:28N 29°58' W 093°52'0 0.2
2018-Feb-23 14:58N 29°58' W 093°52'0 0.0
2018-Feb-23 14:30N 29°58' W 093°52'1 1.1
2018-Feb-23 14:00N 29°59' W 093°52'3 6.7
2018-Feb-23 13:30N 29°60' W 093°55'0 0.3
2018-Feb-23 13:00N 29°60' W 093°55'0 0.0
2018-Feb-23 12:30N 29°60' W 093°55'0 0.0
2018-Feb-23 12:00N 29°60' W 093°55'0 0.0
2018-Feb-23 11:30N 29°60' W 093°55'0 0.0
2018-Feb-23 11:00N 29°60' W 093°55'0 0.0
2018-Feb-23 10:30N 29°60' W 093°55'0 0.0
2018-Feb-23 10:00N 29°60' W 093°55'0 0.0
2018-Feb-23 09:30N 29°60' W 093°55'0 0.0
2018-Feb-23 09:00N 29°60' W 093°55'0 0.0
2018-Feb-23 08:30N 29°60' W 093°55'0 0.0
2018-Feb-23 08:00N 29°60' W 093°55'0 0.0
2018-Feb-23 07:30N 29°60' W 093°55'0 0.0
2018-Feb-23 07:00N 29°60' W 093°55'0 0.0
2018-Feb-23 06:30N 29°60' W 093°55'0 0.0
2018-Feb-23 06:00N 29°60' W 093°55'0 0.0
2018-Feb-23 05:30N 29°60' W 093°55'0 0.0
2018-Feb-23 05:00N 29°60' W 093°55'0 0.0
2018-Feb-23 04:30N 29°60' W 093°55'0 0.0
2018-Feb-23 04:00N 29°60' W 093°55'0 0.0
2018-Feb-23 03:30N 29°60' W 093°55'0 0.0
2018-Feb-23 03:00N 29°60' W 093°55'0 0.0
2018-Feb-23 02:30N 29°60' W 093°55'0 0.0
2018-Feb-23 02:00N 29°60' W 093°55'0 0.0
2018-Feb-23 01:30N 29°60' W 093°55'0 0.0
2018-Feb-23 01:00N 29°60' W 093°55'0 0.0
2018-Feb-23 00:29N 29°60' W 093°55'0 0.0
2018-Feb-23 00:00N 29°60' W 093°55'0 0.0
2018-Feb-22 23:30N 29°60' W 093°55'0 0.1
2018-Feb-22 23:00N 29°60' W 093°55'1 2.7
2018-Feb-22 22:30N 29°59' W 093°54'2 4.7
2018-Feb-22 22:00N 29°58' W 093°51'3 5.6
2018-Feb-22 21:30N 29°55' W 093°53'3 5.5
2018-Feb-22 21:00N 29°53' W 093°55'3 5.1
2018-Feb-22 20:30N 29°51' W 093°57'2 4.3
2018-Feb-22 20:00N 29°49' W 093°58'1 2.2
2018-Feb-22 19:30N 29°49' W 093°59'1 1.1
2018-Feb-22 19:00N 29°50' W 093°59'0 0.1
2018-Feb-22 18:31N 29°49' W 093°59'0 0.2
2018-Feb-22 17:59N 29°50' W 093°59'0 0.0
2018-Feb-22 17:29N 29°50' W 093°59'0 0.0
2018-Feb-22 16:59N 29°50' W 093°59'0 0.0
2018-Feb-22 16:29N 29°50' W 093°59'0 0.0
2018-Feb-22 15:59N 29°50' W 093°59'0 0.0
2018-Feb-22 15:29N 29°50' W 093°59'0 0.0
2018-Feb-22 14:56N 29°50' W 093°59'0 0.0
2018-Feb-22 14:29N 29°50' W 093°59'0 0.0
2018-Feb-22 13:59N 29°50' W 093°59'0 0.0
2018-Feb-22 13:29N 29°50' W 093°59'0 0.0
2018-Feb-22 12:59N 29°50' W 093°59'0 0.0
2018-Feb-22 12:29N 29°50' W 093°59'0 0.0
2018-Feb-22 11:56N 29°50' W 093°59'0 0.0
2018-Feb-22 11:29N 29°50' W 093°59'0 0.0
2018-Feb-22 10:59N 29°50' W 093°59'0 0.0
2018-Feb-22 10:29N 29°50' W 093°59'0 0.0
2018-Feb-22 09:59N 29°50' W 093°59'0 0.0
2018-Feb-22 09:29N 29°50' W 093°59'0 0.0
2018-Feb-22 08:59N 29°50' W 093°59'0 0.0
2018-Feb-22 08:29N 29°50' W 093°59'0 0.0
2018-Feb-22 07:56N 29°50' W 093°59'0 0.0
2018-Feb-22 07:29N 29°50' W 093°59'0 0.0
2018-Feb-22 06:59N 29°50' W 093°59'0 0.0
2018-Feb-22 06:29N 29°50' W 093°59'0 0.0
2018-Feb-22 05:59N 29°50' W 093°59'0 0.0
2018-Feb-22 05:29N 29°50' W 093°59'0 0.0
2018-Feb-22 04:56N 29°50' W 093°59'0 0.0
2018-Feb-22 04:29N 29°50' W 093°59'0 0.0
2018-Feb-22 03:59N 29°50' W 093°59'0 0.0
2018-Feb-22 03:29N 29°50' W 093°59'0 0.0
2018-Feb-22 02:59N 29°50' W 093°59'0 0.0
2018-Feb-22 02:29N 29°50' W 093°59'0 0.0
2018-Feb-22 01:59N 29°50' W 093°59'0 0.0
2018-Feb-22 01:29N 29°50' W 093°59'0 0.0
2018-Feb-22 00:59N 29°50' W 093°59'0 0.0
2018-Feb-22 00:29N 29°50' W 093°59'0 0.0
2018-Feb-21 23:59N 29°50' W 093°59'0 0.0
2018-Feb-21 23:29N 29°50' W 093°59'0 0.0
2018-Feb-21 22:59N 29°50' W 093°59'0 0.0
2018-Feb-21 22:29N 29°50' W 093°59'0 0.0
2018-Feb-21 21:59N 29°50' W 093°59'0 0.0
2018-Feb-21 21:29N 29°50' W 093°59'0 0.0
2018-Feb-21 20:59N 29°50' W 093°59'0 0.0
2018-Feb-21 20:29N 29°50' W 093°59'0 0.0
2018-Feb-21 19:59N 29°50' W 093°59'0 0.0
2018-Feb-21 19:29N 29°50' W 093°59'0 0.0
2018-Feb-21 18:59N 29°50' W 093°59'0 0.0
2018-Feb-21 18:29N 29°50' W 093°59'0 0.0
2018-Feb-21 17:59N 29°50' W 093°59'0 0.0
2018-Feb-21 17:29N 29°50' W 093°59'0 0.0
2018-Feb-21 16:59N 29°50' W 093°59'0 0.0
2018-Feb-21 16:29N 29°50' W 093°59'0 0.0
2018-Feb-21 15:59N 29°50' W 093°59'0 0.0
2018-Feb-21 15:29N 29°50' W 093°59'0 0.0
2018-Feb-21 14:59N 29°50' W 093°59'0 0.0
2018-Feb-21 14:29N 29°50' W 093°59'0 0.0
2018-Feb-21 13:59N 29°50' W 093°59'0 0.0
2018-Feb-21 13:29N 29°50' W 093°59'0 0.0
2018-Feb-21 12:59N 29°50' W 093°59'0 0.0
2018-Feb-21 12:29N 29°50' W 093°59'0 0.0
2018-Feb-21 11:59N 29°50' W 093°59'0 0.0
2018-Feb-21 11:29N 29°50' W 093°59'0 0.0
2018-Feb-21 10:59N 29°50' W 093°59'0 0.0
2018-Feb-21 10:29N 29°50' W 093°59'0 0.0
2018-Feb-21 09:59N 29°50' W 093°59'0 0.0
2018-Feb-21 09:29N 29°50' W 093°59'0 0.0
2018-Feb-21 08:59N 29°50' W 093°59'0 0.0
2018-Feb-21 08:29N 29°50' W 093°59'0 0.0
2018-Feb-21 07:59N 29°50' W 093°59'0 0.0
2018-Feb-21 07:29N 29°50' W 093°59'0 0.0
2018-Feb-21 06:59N 29°50' W 093°59'0 0.0
2018-Feb-21 06:29N 29°50' W 093°59'0 0.0
2018-Feb-21 05:59N 29°50' W 093°59'0 0.0
2018-Feb-21 05:29N 29°50' W 093°59'0 0.0
2018-Feb-21 04:59N 29°50' W 093°59'0 0.0
2018-Feb-21 04:29N 29°50' W 093°59'0 0.0
2018-Feb-21 03:59N 29°50' W 093°59'0 0.0
2018-Feb-21 03:29N 29°50' W 093°59'0 0.0
2018-Feb-21 02:59N 29°50' W 093°59'0 0.0
2018-Feb-21 02:29N 29°50' W 093°59'0 0.0
2018-Feb-21 01:59N 29°50' W 093°59'0 0.0
2018-Feb-21 01:29N 29°50' W 093°59'0 0.0
2018-Feb-21 00:59N 29°50' W 093°59'0 0.0
2018-Feb-21 00:29N 29°50' W 093°59'0 0.0
2018-Feb-20 23:59N 29°50' W 093°59'0 0.0
2018-Feb-20 23:29N 29°50' W 093°59'0 0.0
2018-Feb-20 22:59N 29°50' W 093°59'0 0.0
2018-Feb-20 22:29N 29°50' W 093°59'0 0.0
2018-Feb-20 21:59N 29°50' W 093°59'0 0.0
2018-Feb-20 21:29N 29°50' W 093°59'0 0.0
2018-Feb-20 20:59N 29°50' W 093°59'0 0.0
2018-Feb-20 20:29N 29°50' W 093°59'0 0.0
2018-Feb-20 19:59N 29°50' W 093°59'0 0.0
2018-Feb-20 19:29N 29°50' W 093°59'0 0.0
2018-Feb-20 18:59N 29°50' W 093°59'0 0.0
2018-Feb-20 18:29N 29°50' W 093°59'0 0.0
2018-Feb-20 17:58N 29°50' W 093°59'0 0.0
2018-Feb-20 17:29N 29°50' W 093°59'0 0.2
2018-Feb-20 16:56N 29°49' W 093°59'0 0.4
2018-Feb-20 16:29N 29°50' W 093°59'0 0.3
2018-Feb-20 15:59N 29°49' W 093°59'0 0.0
2018-Feb-20 15:29N 29°49' W 093°59'0 0.0
2018-Feb-20 14:59N 29°49' W 093°59'0 0.0
2018-Feb-20 14:29N 29°49' W 093°59'0 0.0
2018-Feb-20 13:59N 29°49' W 093°59'0 0.0
2018-Feb-20 13:26N 29°49' W 093°59'0 0.0
2018-Feb-20 12:59N 29°49' W 093°59'0 0.0
2018-Feb-20 12:29N 29°49' W 093°59'0 0.0
2018-Feb-20 11:59N 29°49' W 093°59'0 0.0
2018-Feb-20 11:29N 29°49' W 093°59'0 0.0
2018-Feb-20 10:56N 29°49' W 093°59'0 0.0
2018-Feb-20 10:29N 29°49' W 093°59'0 0.0
2018-Feb-20 09:59N 29°49' W 093°59'0 0.0
2018-Feb-20 09:26N 29°49' W 093°59'0 0.0
2018-Feb-20 08:59N 29°49' W 093°59'0 0.0
2018-Feb-20 08:29N 29°49' W 093°59'0 0.0
2018-Feb-20 07:59N 29°49' W 093°59'0 0.0
2018-Feb-20 07:29N 29°49' W 093°59'0 0.0
2018-Feb-20 06:59N 29°49' W 093°59'0 0.0
2018-Feb-20 06:29N 29°49' W 093°59'0 0.0
2018-Feb-20 05:59N 29°49' W 093°59'0 0.0
2018-Feb-20 05:29N 29°49' W 093°59'0 0.0
2018-Feb-20 04:56N 29°49' W 093°59'0 0.0
2018-Feb-20 04:29N 29°49' W 093°59'0 0.0
2018-Feb-20 03:59N 29°49' W 093°59'0 0.0
2018-Feb-20 03:29N 29°49' W 093°59'0 0.0
2018-Feb-20 02:59N 29°49' W 093°59'0 0.0
2018-Feb-20 02:29N 29°49' W 093°59'0 0.0
2018-Feb-20 01:59N 29°49' W 093°59'0 0.0
2018-Feb-20 01:29N 29°49' W 093°59'0 0.0
2018-Feb-20 00:59N 29°49' W 093°59'0 0.0
2018-Feb-20 00:29N 29°49' W 093°59'0 0.0
2018-Feb-19 23:59N 29°49' W 093°59'0 0.0
2018-Feb-19 23:29N 29°49' W 093°59'0 0.0
2018-Feb-19 22:59N 29°49' W 093°59'0 0.0
2018-Feb-19 22:29N 29°49' W 093°59'0 0.0
2018-Feb-19 21:59N 29°49' W 093°59'0 0.0
2018-Feb-19 21:29N 29°49' W 093°59'0 0.0
2018-Feb-19 20:59N 29°49' W 093°59'0 0.0
2018-Feb-19 20:29N 29°49' W 093°59'0 0.0
2018-Feb-19 19:59N 29°49' W 093°59'0 0.0
2018-Feb-19 19:30N 29°49' W 093°59'0 0.8
2018-Feb-19 19:01N 29°49' W 093°59'3 5.1
2018-Feb-19 18:30N 29°47' W 094°01'3 5.9
2018-Feb-19 18:01N 29°45' W 094°04'3 5.8
2018-Feb-19 17:31N 29°43' W 094°07'3 5.4
2018-Feb-19 17:00N 29°42' W 094°09'3 5.2
2018-Feb-19 16:31N 29°41' W 094°12'3 5.4
2018-Feb-19 16:01N 29°40' W 094°15'3 5.0
2018-Feb-19 15:30N 29°38' W 094°17'3 4.9
2018-Feb-19 14:58N 29°37' W 094°20'2 4.5
2018-Feb-19 14:28N 29°36' W 094°22'2 4.1
2018-Feb-19 13:53N 29°36' W 094°25'3 2.6
2018-Feb-19 12:42N 29°34' W 094°28'1 4.7
2018-Feb-19 12:29N 29°33' W 094°28'3 4.1
2018-Feb-19 11:48N 29°31' W 094°31'1 4.8
2018-Feb-19 11:30N 29°30' W 094°32'0 0.9
2018-Feb-19 11:00N 29°30' W 094°33'0 0.5
2018-Feb-19 10:31N 29°30' W 094°33'2 3.5
2018-Feb-19 10:00N 29°29' W 094°35'2 3.3
2018-Feb-19 09:31N 29°29' W 094°37'1 1.4
2018-Feb-19 09:01N 29°29' W 094°37'0 0.0
2018-Feb-19 08:30N 29°29' W 094°37'0 0.0
2018-Feb-19 08:00N 29°29' W 094°37'0 0.0
2018-Feb-19 07:29N 29°29' W 094°37'0 0.0
2018-Feb-19 07:00N 29°29' W 094°37'0 0.0
2018-Feb-19 06:29N 29°29' W 094°37'0 0.0
2018-Feb-19 06:00N 29°29' W 094°37'0 0.0
2018-Feb-19 05:30N 29°29' W 094°37'0 0.0
2018-Feb-19 04:56N 29°29' W 094°37'0 0.0
2018-Feb-19 04:30N 29°29' W 094°37'0 0.0
2018-Feb-19 03:59N 29°29' W 094°37'0 0.0
2018-Feb-18 16:14N 29°29' W 094°37'0 0.0
2018-Feb-18 15:50N 29°29' W 094°37'0 0.0
2018-Feb-18 15:09N 29°29' W 094°37'0 0.0
2018-Feb-18 14:42N 29°29' W 094°37'0 0.0
2018-Feb-18 02:10N 29°29' W 094°37'11 2.6
2018-Feb-17 21:58N 29°22' W 094°47'2 4.4
2018-Feb-17 21:26N 29°20' W 094°47'0 0.8
2018-Feb-17 21:00N 29°19' W 094°47'2 0.1
2018-Feb-17 02:09N 29°19' W 094°48'0 0.0
2018-Feb-17 01:57N 29°19' W 094°48'0 0.0
2018-Feb-17 01:25N 29°19' W 094°48'18 0.8
2018-Feb-16 02:30N 29°30' W 094°32'0 0.0
2018-Feb-16 01:21N 29°30' W 094°32'0 0.0
2018-Feb-16 00:58N 29°30' W 094°32'0 0.0
2018-Feb-16 00:17N 29°30' W 094°32'1 2.8
2018-Feb-15 23:46N 29°31' W 094°31'5 5.4
2018-Feb-15 22:53N 29°34' W 094°27'2 5.4
2018-Feb-15 22:30N 29°35' W 094°25'3 6.2
2018-Feb-15 22:00N 29°36' W 094°22'3 6.6
2018-Feb-15 21:30N 29°38' W 094°18'4 6.7
2018-Feb-15 20:57N 29°40' W 094°14'3 6.7
2018-Feb-15 20:30N 29°41' W 094°11'3 5.4
2018-Feb-15 20:00N 29°42' W 094°09'3 6.6
2018-Feb-15 19:30N 29°44' W 094°06'3 6.4
2018-Feb-15 19:00N 29°46' W 094°03'3 5.8
2018-Feb-15 18:30N 29°48' W 094°00'3 6.2
2018-Feb-15 18:00N 29°50' W 093°57'4 7.7
2018-Feb-15 17:30N 29°53' W 093°55'4 8.4
2018-Feb-15 17:00N 29°56' W 093°52'0 0.1
2018-Feb-15 16:30N 29°56' W 093°52'0 0.0
2018-Feb-15 16:00N 29°56' W 093°52'0 0.0
2018-Feb-15 15:30N 29°56' W 093°52'0 0.0
2018-Feb-15 15:00N 29°56' W 093°52'0 0.0
2018-Feb-15 14:30N 29°56' W 093°52'0 0.0
2018-Feb-15 14:00N 29°56' W 093°52'0 0.0
2018-Feb-15 13:30N 29°56' W 093°52'0 0.0
2018-Feb-15 13:00N 29°56' W 093°52'  
Track history (hours):
 
Tides and Currents Weather Stations Pressure Air Temp Water Temp Dewpoint Dewpoint Depression Visibility Wind Speed Wind Dir Waves Ship Positions

Houma

Owner: Kirby Inland Marine, LP, Houston, TX. More information available from US FCC via Universal Licensing System and Coast Guard Vessel Documentation Center.

Last reported at 2018-Feb-25 13:00 UTC. Time now 2018-Feb-25 13:28 UTC.
Position N 29°34' W 094°28'.

Length 115 m; draft 2.9 m.

Type: . MMSI: 367314420.

Date/timePositionNaut miles runAvg speedWind from/ knotsBaromVisibWave heightAir tempDewpointWater temp
2018-Feb-25 13:00N 29°34' W 094°28'0 0.7
2018-Feb-25 12:30N 29°34' W 094°27'2 3.5
2018-Feb-25 11:51N 29°35' W 094°25'2 4.5
2018-Feb-25 11:30N 29°36' W 094°23'1 2.1
2018-Feb-25 10:59N 29°36' W 094°22'0 0.1
2018-Feb-25 10:18N 29°36' W 094°22'1 0.6
2018-Feb-25 07:56N 29°37' W 094°21'0 0.0
2018-Feb-25 07:29N 29°37' W 094°21'0 0.0
2018-Feb-25 07:00N 29°37' W 094°21'3 2.2
2018-Feb-25 05:48N 29°38' W 094°18'2 6.2
2018-Feb-25 05:30N 29°39' W 094°16'4 6.3
2018-Feb-25 04:55N 29°41' W 094°13'2 6.2
2018-Feb-25 04:30N 29°41' W 094°10'2 4.6
2018-Feb-25 04:00N 29°43' W 094°08'3 5.3
2018-Feb-25 03:30N 29°44' W 094°05'3 5.5
2018-Feb-25 03:00N 29°46' W 094°03'3 5.7
2018-Feb-25 02:30N 29°48' W 094°00'3 5.5
2018-Feb-25 02:01N 29°49' W 093°58'3 6.9
2018-Feb-25 01:30N 29°52' W 093°56'4 7.6
2018-Feb-25 01:00N 29°55' W 093°53'3 6.9
2018-Feb-25 00:30N 29°59' W 093°52'4 7.6
2018-Feb-25 00:00N 29°60' W 093°56'0 0.1
2018-Feb-24 23:29N 29°59' W 093°56'0 0.0
2018-Feb-24 22:59N 29°59' W 093°56'0 0.0
2018-Feb-24 22:29N 29°59' W 093°56'0 0.0
2018-Feb-24 21:59N 29°59' W 093°56'0 0.0
2018-Feb-24 21:29N 29°59' W 093°56'0 0.0
2018-Feb-24 20:59N 29°59' W 093°56'0 0.0
2018-Feb-24 20:29N 29°59' W 093°56'0 0.0
2018-Feb-24 19:59N 29°59' W 093°56'0 0.0
2018-Feb-24 19:29N 29°59' W 093°56'0 0.0
2018-Feb-24 18:58N 29°59' W 093°56'0 0.0
2018-Feb-24 18:28N 29°59' W 093°56'0 0.0
2018-Feb-24 17:58N 29°59' W 093°56'0 0.0
2018-Feb-24 17:28N 29°59' W 093°56'0 0.0
2018-Feb-24 16:58N 29°59' W 093°56'0 0.0
2018-Feb-24 16:28N 29°59' W 093°56'0 0.0
2018-Feb-24 15:58N 29°59' W 093°56'0 0.0
2018-Feb-24 15:28N 29°59' W 093°56'0 0.0
2018-Feb-24 14:58N 29°59' W 093°56'0 0.0
2018-Feb-24 14:28N 29°59' W 093°56'0 0.0
2018-Feb-24 13:58N 29°59' W 093°56'0 0.0
2018-Feb-24 13:28N 29°59' W 093°56'0 0.0
2018-Feb-24 12:58N 29°59' W 093°56'0 0.0
2018-Feb-24 12:25N 29°59' W 093°56'0 0.0
2018-Feb-24 11:58N 29°59' W 093°56'0 0.0
2018-Feb-24 11:28N 29°59' W 093°56'0 0.0
2018-Feb-24 10:58N 29°59' W 093°56'0 0.0
2018-Feb-24 10:25N 29°59' W 093°56'0 0.0
2018-Feb-24 09:58N 29°59' W 093°56'0 0.0
2018-Feb-24 09:28N 29°59' W 093°56'0 0.0
2018-Feb-24 08:58N 29°59' W 093°56'0 0.0
2018-Feb-24 08:28N 29°59' W 093°56'0 0.0
2018-Feb-24 07:58N 29°59' W 093°56'0 0.0
2018-Feb-24 07:28N 29°59' W 093°56'0 0.0
2018-Feb-24 06:58N 29°59' W 093°56'0 0.0
2018-Feb-24 06:28N 29°59' W 093°56'0 0.0
2018-Feb-24 05:58N 29°59' W 093°56'0 0.0
2018-Feb-24 05:28N 29°59' W 093°56'0 0.0
2018-Feb-24 04:59N 29°59' W 093°56'0 0.0
2018-Feb-24 04:30N 29°59' W 093°56'0 0.1
2018-Feb-24 03:59N 29°59' W 093°56'0 0.0
2018-Feb-24 03:29N 29°59' W 093°56'0 0.0
2018-Feb-24 02:59N 29°59' W 093°56'0 0.0
2018-Feb-24 02:29N 29°59' W 093°56'0 0.0
2018-Feb-24 01:59N 29°59' W 093°56'0 0.0
2018-Feb-24 01:29N 29°59' W 093°56'0 0.0
2018-Feb-24 00:59N 29°59' W 093°56'0 0.0
2018-Feb-24 00:29N 29°59' W 093°56'0 0.0
2018-Feb-23 23:59N 29°59' W 093°56'0 0.0
2018-Feb-23 23:29N 29°59' W 093°56'0 0.0
2018-Feb-23 22:59N 29°59' W 093°56'0 0.0
2018-Feb-23 22:29N 29°59' W 093°56'0 0.0
2018-Feb-23 21:59N 29°59' W 093°56'0 0.0
2018-Feb-23 21:29N 29°59' W 093°56'0 0.0
2018-Feb-23 20:59N 29°59' W 093°56'0 0.0
2018-Feb-23 20:30N 29°59' W 093°56'1 1.9
2018-Feb-23 20:00N 29°60' W 093°55'0 0.1
2018-Feb-23 19:30N 29°60' W 093°55'0 0.0
2018-Feb-23 19:00N 29°60' W 093°55'0 0.0
2018-Feb-23 18:29N 29°60' W 093°55'0 0.0
2018-Feb-23 18:00N 29°60' W 093°55'3 6.3
2018-Feb-23 17:30N 29°59' W 093°52'1 1.1
2018-Feb-23 16:58N 29°58' W 093°52'0 0.0
2018-Feb-23 16:28N 29°58' W 093°52'0 0.0
2018-Feb-23 15:58N 29°58' W 093°52'0 0.0
2018-Feb-23 15:28N 29°58' W 093°52'0 0.2
2018-Feb-23 14:58N 29°58' W 093°52'0 0.0
2018-Feb-23 14:30N 29°58' W 093°52'1 1.1
2018-Feb-23 14:00N 29°59' W 093°52'3 6.7
2018-Feb-23 13:30N 29°60' W 093°55'0 0.3
2018-Feb-23 13:00N 29°60' W 093°55'0 0.0
2018-Feb-23 12:30N 29°60' W 093°55'0 0.0
2018-Feb-23 12:00N 29°60' W 093°55'0 0.0
2018-Feb-23 11:30N 29°60' W 093°55'0 0.0
2018-Feb-23 11:00N 29°60' W 093°55'0 0.0
2018-Feb-23 10:30N 29°60' W 093°55'0 0.0
2018-Feb-23 10:00N 29°60' W 093°55'0 0.0
2018-Feb-23 09:30N 29°60' W 093°55'0 0.0
2018-Feb-23 09:00N 29°60' W 093°55'0 0.0
2018-Feb-23 08:30N 29°60' W 093°55'0 0.0
2018-Feb-23 08:00N 29°60' W 093°55'0 0.0
2018-Feb-23 07:30N 29°60' W 093°55'0 0.0
2018-Feb-23 07:00N 29°60' W 093°55'0 0.0
2018-Feb-23 06:30N 29°60' W 093°55'0 0.0
2018-Feb-23 06:00N 29°60' W 093°55'0 0.0
2018-Feb-23 05:30N 29°60' W 093°55'0 0.0
2018-Feb-23 05:00N 29°60' W 093°55'0 0.0
2018-Feb-23 04:30N 29°60' W 093°55'0 0.0
2018-Feb-23 04:00N 29°60' W 093°55'0 0.0
2018-Feb-23 03:30N 29°60' W 093°55'0 0.0
2018-Feb-23 03:00N 29°60' W 093°55'0 0.0
2018-Feb-23 02:30N 29°60' W 093°55'0 0.0
2018-Feb-23 02:00N 29°60' W 093°55'0 0.0
2018-Feb-23 01:30N 29°60' W 093°55'0 0.0
2018-Feb-23 01:00N 29°60' W 093°55'0 0.0
2018-Feb-23 00:29N 29°60' W 093°55'0 0.0
2018-Feb-23 00:00N 29°60' W 093°55'0 0.0
2018-Feb-22 23:30N 29°60' W 093°55'0 0.1
2018-Feb-22 23:00N 29°60' W 093°55'1 2.7
2018-Feb-22 22:30N 29°59' W 093°54'2 4.7
2018-Feb-22 22:00N 29°58' W 093°51'3 5.6
2018-Feb-22 21:30N 29°55' W 093°53'3 5.5
2018-Feb-22 21:00N 29°53' W 093°55'3 5.1
2018-Feb-22 20:30N 29°51' W 093°57'2 4.3
2018-Feb-22 20:00N 29°49' W 093°58'1 2.2
2018-Feb-22 19:30N 29°49' W 093°59'1 1.1
2018-Feb-22 19:00N 29°50' W 093°59'0 0.1
2018-Feb-22 18:31N 29°49' W 093°59'0 0.2
2018-Feb-22 17:59N 29°50' W 093°59'0 0.0
2018-Feb-22 17:29N 29°50' W 093°59'0 0.0
2018-Feb-22 16:59N 29°50' W 093°59'0 0.0
2018-Feb-22 16:29N 29°50' W 093°59'0 0.0
2018-Feb-22 15:59N 29°50' W 093°59'0 0.0
2018-Feb-22 15:29N 29°50' W 093°59'0 0.0
2018-Feb-22 14:56N 29°50' W 093°59'0 0.0
2018-Feb-22 14:29N 29°50' W 093°59'0 0.0
2018-Feb-22 13:59N 29°50' W 093°59'0 0.0
2018-Feb-22 13:29N 29°50' W 093°59'0 0.0
2018-Feb-22 12:59N 29°50' W 093°59'0 0.0
2018-Feb-22 12:29N 29°50' W 093°59'0 0.0
2018-Feb-22 11:56N 29°50' W 093°59'0 0.0
2018-Feb-22 11:29N 29°50' W 093°59'0 0.0
2018-Feb-22 10:59N 29°50' W 093°59'0 0.0
2018-Feb-22 10:29N 29°50' W 093°59'0 0.0
2018-Feb-22 09:59N 29°50' W 093°59'0 0.0
2018-Feb-22 09:29N 29°50' W 093°59'0 0.0
2018-Feb-22 08:59N 29°50' W 093°59'0 0.0
2018-Feb-22 08:29N 29°50' W 093°59'0 0.0
2018-Feb-22 07:56N 29°50' W 093°59'0 0.0
2018-Feb-22 07:29N 29°50' W 093°59'0 0.0
2018-Feb-22 06:59N 29°50' W 093°59'0 0.0
2018-Feb-22 06:29N 29°50' W 093°59'0 0.0
2018-Feb-22 05:59N 29°50' W 093°59'0 0.0
2018-Feb-22 05:29N 29°50' W 093°59'0 0.0
2018-Feb-22 04:56N 29°50' W 093°59'0 0.0
2018-Feb-22 04:29N 29°50' W 093°59'0 0.0
2018-Feb-22 03:59N 29°50' W 093°59'0 0.0
2018-Feb-22 03:29N 29°50' W 093°59'0 0.0
2018-Feb-22 02:59N 29°50' W 093°59'0 0.0
2018-Feb-22 02:29N 29°50' W 093°59'0 0.0
2018-Feb-22 01:59N 29°50' W 093°59'0 0.0
2018-Feb-22 01:29N 29°50' W 093°59'0 0.0
2018-Feb-22 00:59N 29°50' W 093°59'0 0.0
2018-Feb-22 00:29N 29°50' W 093°59'0 0.0
2018-Feb-21 23:59N 29°50' W 093°59'0 0.0
2018-Feb-21 23:29N 29°50' W 093°59'0 0.0
2018-Feb-21 22:59N 29°50' W 093°59'0 0.0
2018-Feb-21 22:29N 29°50' W 093°59'0 0.0
2018-Feb-21 21:59N 29°50' W 093°59'0 0.0
2018-Feb-21 21:29N 29°50' W 093°59'0 0.0
2018-Feb-21 20:59N 29°50' W 093°59'0 0.0
2018-Feb-21 20:29N 29°50' W 093°59'0 0.0
2018-Feb-21 19:59N 29°50' W 093°59'0 0.0
2018-Feb-21 19:29N 29°50' W 093°59'0 0.0
2018-Feb-21 18:59N 29°50' W 093°59'0 0.0
2018-Feb-21 18:29N 29°50' W 093°59'0 0.0
2018-Feb-21 17:59N 29°50' W 093°59'0 0.0
2018-Feb-21 17:29N 29°50' W 093°59'0 0.0
2018-Feb-21 16:59N 29°50' W 093°59'0 0.0
2018-Feb-21 16:29N 29°50' W 093°59'0 0.0
2018-Feb-21 15:59N 29°50' W 093°59'0 0.0
2018-Feb-21 15:29N 29°50' W 093°59'0 0.0
2018-Feb-21 14:59N 29°50' W 093°59'0 0.0
2018-Feb-21 14:29N 29°50' W 093°59'0 0.0
2018-Feb-21 13:59N 29°50' W 093°59'0 0.0
2018-Feb-21 13:29N 29°50' W 093°59'0 0.0
2018-Feb-21 12:59N 29°50' W 093°59'0 0.0
2018-Feb-21 12:29N 29°50' W 093°59'0 0.0
2018-Feb-21 11:59N 29°50' W 093°59'0 0.0
2018-Feb-21 11:29N 29°50' W 093°59'0 0.0
2018-Feb-21 10:59N 29°50' W 093°59'0 0.0
2018-Feb-21 10:29N 29°50' W 093°59'0 0.0
2018-Feb-21 09:59N 29°50' W 093°59'0 0.0
2018-Feb-21 09:29N 29°50' W 093°59'0 0.0
2018-Feb-21 08:59N 29°50' W 093°59'0 0.0
2018-Feb-21 08:29N 29°50' W 093°59'0 0.0
2018-Feb-21 07:59N 29°50' W 093°59'0 0.0
2018-Feb-21 07:29N 29°50' W 093°59'0 0.0
2018-Feb-21 06:59N 29°50' W 093°59'0 0.0
2018-Feb-21 06:29N 29°50' W 093°59'0 0.0
2018-Feb-21 05:59N 29°50' W 093°59'0 0.0
2018-Feb-21 05:29N 29°50' W 093°59'0 0.0
2018-Feb-21 04:59N 29°50' W 093°59'0 0.0
2018-Feb-21 04:29N 29°50' W 093°59'0 0.0
2018-Feb-21 03:59N 29°50' W 093°59'0 0.0
2018-Feb-21 03:29N 29°50' W 093°59'0 0.0
2018-Feb-21 02:59N 29°50' W 093°59'0 0.0
2018-Feb-21 02:29N 29°50' W 093°59'0 0.0
2018-Feb-21 01:59N 29°50' W 093°59'0 0.0
2018-Feb-21 01:29N 29°50' W 093°59'0 0.0
2018-Feb-21 00:59N 29°50' W 093°59'0 0.0
2018-Feb-21 00:29N 29°50' W 093°59'0 0.0
2018-Feb-20 23:59N 29°50' W 093°59'0 0.0
2018-Feb-20 23:29N 29°50' W 093°59'0 0.0
2018-Feb-20 22:59N 29°50' W 093°59'0 0.0
2018-Feb-20 22:29N 29°50' W 093°59'0 0.0
2018-Feb-20 21:59N 29°50' W 093°59'0 0.0
2018-Feb-20 21:29N 29°50' W 093°59'0 0.0
2018-Feb-20 20:59N 29°50' W 093°59'0 0.0
2018-Feb-20 20:29N 29°50' W 093°59'0 0.0
2018-Feb-20 19:59N 29°50' W 093°59'0 0.0
2018-Feb-20 19:29N 29°50' W 093°59'0 0.0
2018-Feb-20 18:59N 29°50' W 093°59'0 0.0
2018-Feb-20 18:29N 29°50' W 093°59'0 0.0
2018-Feb-20 17:58N 29°50' W 093°59'0 0.0
2018-Feb-20 17:29N 29°50' W 093°59'0 0.2
2018-Feb-20 16:56N 29°49' W 093°59'0 0.4
2018-Feb-20 16:29N 29°50' W 093°59'0 0.3
2018-Feb-20 15:59N 29°49' W 093°59'0 0.0
2018-Feb-20 15:29N 29°49' W 093°59'0 0.0
2018-Feb-20 14:59N 29°49' W 093°59'0 0.0
2018-Feb-20 14:29N 29°49' W 093°59'0 0.0
2018-Feb-20 13:59N 29°49' W 093°59'0 0.0
2018-Feb-20 13:26N 29°49' W 093°59'0 0.0
2018-Feb-20 12:59N 29°49' W 093°59'0 0.0
2018-Feb-20 12:29N 29°49' W 093°59'0 0.0
2018-Feb-20 11:59N 29°49' W 093°59'0 0.0
2018-Feb-20 11:29N 29°49' W 093°59'0 0.0
2018-Feb-20 10:56N 29°49' W 093°59'0 0.0
2018-Feb-20 10:29N 29°49' W 093°59'0 0.0
2018-Feb-20 09:59N 29°49' W 093°59'0 0.0
2018-Feb-20 09:26N 29°49' W 093°59'0 0.0
2018-Feb-20 08:59N 29°49' W 093°59'0 0.0
2018-Feb-20 08:29N 29°49' W 093°59'0 0.0
2018-Feb-20 07:59N 29°49' W 093°59'0 0.0
2018-Feb-20 07:29N 29°49' W 093°59'0 0.0
2018-Feb-20 06:59N 29°49' W 093°59'0 0.0
2018-Feb-20 06:29N 29°49' W 093°59'0 0.0
2018-Feb-20 05:59N 29°49' W 093°59'0 0.0
2018-Feb-20 05:29N 29°49' W 093°59'0 0.0
2018-Feb-20 04:56N 29°49' W 093°59'0 0.0
2018-Feb-20 04:29N 29°49' W 093°59'0 0.0
2018-Feb-20 03:59N 29°49' W 093°59'0 0.0
2018-Feb-20 03:29N 29°49' W 093°59'0 0.0
2018-Feb-20 02:59N 29°49' W 093°59'0 0.0
2018-Feb-20 02:29N 29°49' W 093°59'0 0.0
2018-Feb-20 01:59N 29°49' W 093°59'0 0.0
2018-Feb-20 01:29N 29°49' W 093°59'0 0.0
2018-Feb-20 00:59N 29°49' W 093°59'0 0.0
2018-Feb-20 00:29N 29°49' W 093°59'0 0.0
2018-Feb-19 23:59N 29°49' W 093°59'0 0.0
2018-Feb-19 23:29N 29°49' W 093°59'0 0.0
2018-Feb-19 22:59N 29°49' W 093°59'0 0.0
2018-Feb-19 22:29N 29°49' W 093°59'0 0.0
2018-Feb-19 21:59N 29°49' W 093°59'0 0.0
2018-Feb-19 21:29N 29°49' W 093°59'0 0.0
2018-Feb-19 20:59N 29°49' W 093°59'0 0.0
2018-Feb-19 20:29N 29°49' W 093°59'0 0.0
2018-Feb-19 19:59N 29°49' W 093°59'0 0.0
2018-Feb-19 19:30N 29°49' W 093°59'0 0.8
2018-Feb-19 19:01N 29°49' W 093°59'3 5.1
2018-Feb-19 18:30N 29°47' W 094°01'3 5.9
2018-Feb-19 18:01N 29°45' W 094°04'3 5.8
2018-Feb-19 17:31N 29°43' W 094°07'3 5.4
2018-Feb-19 17:00N 29°42' W 094°09'3 5.2
2018-Feb-19 16:31N 29°41' W 094°12'3 5.4
2018-Feb-19 16:01N 29°40' W 094°15'3 5.0
2018-Feb-19 15:30N 29°38' W 094°17'3 4.9
2018-Feb-19 14:58N 29°37' W 094°20'2 4.5
2018-Feb-19 14:28N 29°36' W 094°22'2 4.1
2018-Feb-19 13:53N 29°36' W 094°25'3 2.6
2018-Feb-19 12:42N 29°34' W 094°28'1 4.7
2018-Feb-19 12:29N 29°33' W 094°28'3 4.1
2018-Feb-19 11:48N 29°31' W 094°31'1 4.8
2018-Feb-19 11:30N 29°30' W 094°32'0 0.9
2018-Feb-19 11:00N 29°30' W 094°33'0 0.5
2018-Feb-19 10:31N 29°30' W 094°33'2 3.5
2018-Feb-19 10:00N 29°29' W 094°35'2 3.3
2018-Feb-19 09:31N 29°29' W 094°37'1 1.4
2018-Feb-19 09:01N 29°29' W 094°37'0 0.0
2018-Feb-19 08:30N 29°29' W 094°37'0 0.0
2018-Feb-19 08:00N 29°29' W 094°37'0 0.0
2018-Feb-19 07:29N 29°29' W 094°37'0 0.0
2018-Feb-19 07:00N 29°29' W 094°37'0 0.0
2018-Feb-19 06:29N 29°29' W 094°37'0 0.0
2018-Feb-19 06:00N 29°29' W 094°37'0 0.0
2018-Feb-19 05:30N 29°29' W 094°37'0 0.0
2018-Feb-19 04:56N 29°29' W 094°37'0 0.0
2018-Feb-19 04:30N 29°29' W 094°37'0 0.0
2018-Feb-19 03:59N 29°29' W 094°37'0 0.0
2018-Feb-18 16:14N 29°29' W 094°37'0 0.0
2018-Feb-18 15:50N 29°29' W 094°37'0 0.0
2018-Feb-18 15:09N 29°29' W 094°37'0 0.0
2018-Feb-18 14:42N 29°29' W 094°37'0 0.0
2018-Feb-18 02:10N 29°29' W 094°37'11 2.6
2018-Feb-17 21:58N 29°22' W 094°47'2 4.4
2018-Feb-17 21:26N 29°20' W 094°47'0 0.8
2018-Feb-17 21:00N 29°19' W 094°47'2 0.1
2018-Feb-17 02:09N 29°19' W 094°48'0 0.0
2018-Feb-17 01:57N 29°19' W 094°48'0 0.0
2018-Feb-17 01:25N 29°19' W 094°48'18 0.8
2018-Feb-16 02:30N 29°30' W 094°32'0 0.0
2018-Feb-16 01:21N 29°30' W 094°32'0 0.0
2018-Feb-16 00:58N 29°30' W 094°32'0 0.0
2018-Feb-16 00:17N 29°30' W 094°32'1 2.8
2018-Feb-15 23:46N 29°31' W 094°31'5 5.4
2018-Feb-15 22:53N 29°34' W 094°27'2 5.4
2018-Feb-15 22:30N 29°35' W 094°25'3 6.2
2018-Feb-15 22:00N 29°36' W 094°22'3 6.6
2018-Feb-15 21:30N 29°38' W 094°18'4 6.7
2018-Feb-15 20:57N 29°40' W 094°14'3 6.7
2018-Feb-15 20:30N 29°41' W 094°11'3 5.4
2018-Feb-15 20:00N 29°42' W 094°09'3 6.6
2018-Feb-15 19:30N 29°44' W 094°06'3 6.4
2018-Feb-15 19:00N 29°46' W 094°03'3 5.8
2018-Feb-15 18:30N 29°48' W 094°00'3 6.2
2018-Feb-15 18:00N 29°50' W 093°57'4 7.7
2018-Feb-15 17:30N 29°53' W 093°55'4 8.4
2018-Feb-15 17:00N 29°56' W 093°52'0 0.1
2018-Feb-15 16:30N 29°56' W 093°52'0 0.0
2018-Feb-15 16:00N 29°56' W 093°52'0 0.0
2018-Feb-15 15:30N 29°56' W 093°52'0 0.0
2018-Feb-15 15:00N 29°56' W 093°52'0 0.0
2018-Feb-15 14:30N 29°56' W 093°52'0 0.0
2018-Feb-15 14:00N 29°56' W 093°52'0 0.0
2018-Feb-15 13:30N 29°56' W 093°52'0 0.0
2018-Feb-15 13:00N 29°56' W 093°52'  

Dump ship's entire track history